Time;durP1;ratioP1;P1;durP2;ratioP2;P2;SDS_P1;SDS_P2;PMS_P1;PMS_P2;Temp;Humidity;BMP_temperature;BMP_pressure;BME280_temperature;BME280_humidity;BME280_pressure;Samples;Min_cycle;Max_cycle;Signal;HPM_P1;HPM_P2
2023/01/26 00:01:42;;;;;;;62.67;41.83;;;18.30;89.00;;;;;;1890306;75;21191;-87
2023/01/26 00:04:12;;;;;;;61.08;40.95;;;18.30;89.20;;;;;;1884561;75;21062;-88
2023/01/26 00:06:43;;;;;;;60.80;41.13;;;18.20;89.40;;;;;;1903305;74;21132;-89
2023/01/26 00:09:17;;;;;;;60.70;40.90;;;18.30;89.20;;;;;;1903462;75;21046;-89
2023/01/26 00:11:49;;;;;;;66.28;44.10;;;18.30;89.20;;;;;;1896214;74;21083;-87
2023/01/26 00:14:20;;;;;;;67.35;44.35;;;18.30;89.20;;;;;;1904295;74;21105;-87
2023/01/26 00:16:52;;;;;;;68.57;46.25;;;18.30;89.50;;;;;;1906500;73;21125;-92
2023/01/26 00:19:23;;;;;;;71.72;48.70;;;18.30;89.60;;;;;;1899455;75;21138;-89
2023/01/26 00:21:54;;;;;;;90.20;49.70;;;18.30;89.50;;;;;;1893831;75;21141;-88
2023/01/26 00:24:24;;;;;;;69.42;45.17;;;18.30;89.50;;;;;;1895886;74;21062;-88
2023/01/26 00:26:55;;;;;;;68.12;46.85;;;18.30;89.40;;;;;;1889495;74;21074;-89
2023/01/26 00:29:26;;;;;;;76.07;44.63;;;18.40;89.30;;;;;;1884188;74;21154;-88
2023/01/26 00:31:57;;;;;;;73.62;46.02;;;18.40;88.80;;;;;;1884599;75;21121;-87
2023/01/26 00:34:27;;;;;;;72.40;45.52;;;18.40;88.60;;;;;;1896818;74;21209;-87
2023/01/26 00:37:06;;;;;;;70.45;44.70;;;18.50;88.50;;;;;;1900685;74;21064;-88
2023/01/26 00:39:37;;;;;;;71.70;44.67;;;18.50;88.10;;;;;;1898034;75;21101;-84
2023/01/26 00:42:10;;;;;;;71.12;46.10;;;18.50;88.70;;;;;;1900728;74;21149;-87
2023/01/26 00:44:42;;;;;;;68.60;45.35;;;18.60;87.90;;;;;;1894944;75;21125;-87
2023/01/26 00:47:14;;;;;;;69.77;46.08;;;18.60;87.90;;;;;;1897089;75;21050;-86
2023/01/26 00:49:45;;;;;;;70.42;47.50;;;18.70;87.60;;;;;;1819598;78;21175;-88
2023/01/26 00:52:17;;;;;;;75.80;47.13;;;18.70;87.40;;;;;;1897372;75;21126;-86
2023/01/26 00:54:49;;;;;;;67.72;45.38;;;18.80;87.40;;;;;;1891069;74;21180;-86
2023/01/26 00:57:21;;;;;;;74.67;47.95;;;18.80;87.30;;;;;;1891738;74;21164;-88
2023/01/26 00:59:52;;;;;;;75.12;47.43;;;18.90;87.20;;;;;;1896681;76;21268;-87
2023/01/26 01:02:24;;;;;;;72.15;47.98;;;19.00;87.30;;;;;;1897809;76;21216;-90
2023/01/26 01:04:54;;;;;;;78.87;47.38;;;19.10;87.40;;;;;;1898576;75;21070;-88
2023/01/26 01:07:25;;;;;;;72.97;49.70;;;19.10;86.90;;;;;;1842718;77;21170;-88
2023/01/26 01:09:56;;;;;;;69.20;49.23;;;19.20;86.50;;;;;;1896719;75;21085;-85
2023/01/26 01:12:28;;;;;;;78.62;50.48;;;19.20;86.10;;;;;;1896898;75;21143;-87
2023/01/26 01:14:59;;;;;;;81.37;51.55;;;19.20;86.30;;;;;;1898443;75;21140;-88
2023/01/26 01:17:30;;;;;;;80.07;53.33;;;19.30;86.40;;;;;;1871938;75;21173;-87
2023/01/26 01:20:01;;;;;;;87.35;54.45;;;19.30;85.90;;;;;;1896464;75;21102;-86
2023/01/26 01:22:32;;;;;;;86.87;52.75;;;19.30;85.70;;;;;;1898836;75;21058;-88
2023/01/26 01:25:06;;;;;;;82.65;53.52;;;19.30;85.80;;;;;;1893106;74;21093;-69
2023/01/26 01:27:38;;;;;;;82.47;53.10;;;19.40;85.50;;;;;;1895763;74;21081;-69
2023/01/26 01:30:10;;;;;;;83.60;56.40;;;19.40;85.20;;;;;;1890060;74;21233;-70
2023/01/26 01:32:43;;;;;;;81.55;53.92;;;19.50;85.00;;;;;;1889651;74;21204;-69
2023/01/26 01:35:15;;;;;;;84.85;55.10;;;19.50;84.50;;;;;;1892452;74;21644;-68
2023/01/26 01:37:46;;;;;;;88.65;52.95;;;19.60;84.30;;;;;;1894756;74;21071;-70
2023/01/26 01:40:19;;;;;;;79.40;52.80;;;19.60;82.50;;;;;;1891672;74;21596;-70
2023/01/26 01:42:50;;;;;;;80.15;51.88;;;19.70;82.70;;;;;;1891489;74;21657;-69
2023/01/26 01:45:36;;;;;;;79.17;49.98;;;19.70;82.10;;;;;;1894531;74;21117;-69
2023/01/26 01:48:09;;;;;;;71.75;48.13;;;19.80;81.30;;;;;;1893954;74;21080;-71
2023/01/26 01:50:44;;;;;;;68.07;47.10;;;19.80;81.40;;;;;;1891827;74;21127;-69
2023/01/26 01:53:37;;;;;;;73.70;47.85;;;19.90;81.30;;;;;;1893989;74;21152;-69
2023/01/26 01:56:14;;;;;;;66.50;45.92;;;20.00;81.10;;;;;;1893937;74;21153;-70
2023/01/26 01:58:46;;;;;;;71.42;46.15;;;20.10;80.70;;;;;;1882556;74;21157;-70
2023/01/26 02:01:18;;;;;;;66.82;45.58;;;20.20;79.80;;;;;;1888937;74;21089;-70
2023/01/26 02:03:51;;;;;;;68.33;44.90;;;20.20;79.20;;;;;;1890539;74;21141;-69
2023/01/26 02:06:27;;;;;;;71.60;46.88;;;20.30;79.60;;;;;;1897521;74;21226;-69
2023/01/26 02:08:59;;;;;;;67.60;44.25;;;20.30;79.30;;;;;;1880104;75;21133;-69
2023/01/26 02:11:35;;;;;;;68.60;43.15;;;20.30;79.30;;;;;;1891329;75;21136;-71
2023/01/26 02:14:09;;;;;;;63.05;44.00;;;20.40;79.20;;;;;;1892820;74;21093;-70
2023/01/26 02:16:42;;;;;;;75.78;44.80;;;20.50;78.80;;;;;;1911254;74;21122;-69
2023/01/26 02:19:21;;;;;;;62.90;42.23;;;20.60;78.50;;;;;;1893083;74;21184;-70
2023/01/26 02:21:54;;;;;;;66.87;44.10;;;20.70;78.30;;;;;;1907790;74;21141;-68
2023/01/26 02:24:29;;;;;;;57.83;39.15;;;20.80;77.60;;;;;;1886418;74;21225;-71
2023/01/26 02:27:01;;;;;;;60.58;36.38;;;20.80;76.10;;;;;;1881894;74;21206;-70
2023/01/26 02:29:32;;;;;;;55.55;36.88;;;20.90;75.30;;;;;;1881440;74;21180;-67
2023/01/26 02:32:03;;;;;;;51.02;36.90;;;21.00;75.30;;;;;;1884058;74;21161;-70
2023/01/26 02:34:40;;;;;;;55.78;36.55;;;21.00;75.10;;;;;;1883547;74;21525;-69
2023/01/26 02:37:10;;;;;;;56.58;34.40;;;21.10;75.20;;;;;;1881738;74;21163;-69
2023/01/26 02:39:47;;;;;;;49.03;33.65;;;21.10;74.50;;;;;;1887462;75;21141;-69
2023/01/26 02:45:09;;;;;;;56.80;39.78;;;21.30;75.20;;;;;;1892184;74;21050;-67
2023/01/26 02:47:41;;;;;;;65.32;43.28;;;21.30;75.00;;;;;;1888479;74;21149;-67
2023/01/26 02:50:15;;;;;;;64.22;43.52;;;21.40;74.90;;;;;;1891182;74;21061;-67
2023/01/26 02:52:45;;;;;;;66.30;44.88;;;21.50;74.80;;;;;;1889288;74;21151;-68
2023/01/26 02:55:23;;;;;;;59.13;39.20;;;21.50;74.70;;;;;;1888072;75;21124;-68
2023/01/26 02:58:03;;;;;;;58.20;36.70;;;21.60;74.30;;;;;;1887881;74;21078;-69
2023/01/26 03:00:36;;;;;;;56.45;38.35;;;21.70;74.10;;;;;;1913025;73;21077;-67
2023/01/26 03:03:11;;;;;;;68.30;42.58;;;21.70;73.70;;;;;;1909444;73;21089;-69
2023/01/26 03:05:43;;;;;;;67.20;43.92;;;21.80;73.90;;;;;;1902864;73;21176;-67
2023/01/26 03:08:17;;;;;;;70.00;44.85;;;21.90;73.70;;;;;;1905921;74;21065;-67
2023/01/26 03:10:48;;;;;;;65.55;43.55;;;21.90;73.90;;;;;;1900998;73;21157;-68
2023/01/26 03:13:19;;;;;;;68.78;45.25;;;22.00;74.00;;;;;;1897004;74;22188;-68
2023/01/26 03:15:53;;;;;;;62.45;42.35;;;22.00;73.90;;;;;;1905745;73;21051;-68
2023/01/26 03:27:28;;;;;;;66.72;44.10;;;22.30;72.80;;;;;;1918578;72;21136;-69
2023/01/26 03:29:59;;;;;;;65.97;43.55;;;22.50;72.80;;;;;;1932817;72;21255;-70
2023/01/26 03:32:30;;;;;;;56.70;37.42;;;22.60;72.60;;;;;;1917622;73;21377;-70
2023/01/26 03:35:02;;;;;;;49.30;36.03;;;22.70;71.70;;;;;;1927700;72;21094;-70
2023/01/26 03:37:42;;;;;;;51.95;35.08;;;22.80;70.90;;;;;;1918021;73;21671;-69
2023/01/26 03:57:00;;;;;;;47.70;30.40;;;23.50;67.90;;;;;;1923624;73;21145;-69
2023/01/26 03:59:42;;;;;;;42.38;28.32;;;23.50;67.60;;;;;;1934090;73;21140;-69
2023/01/26 04:10:56;;;;;;;37.70;26.20;;;24.10;65.40;;;;;;1834640;75;21666;-69
2023/01/26 04:21:53;;;;;;;45.23;27.15;;;24.70;61.50;;;;;;1898746;75;21083;-69
2023/01/26 04:24:25;;;;;;;38.00;27.55;;;24.80;60.80;;;;;;1915584;73;21621;-67
2023/01/26 04:26:57;;;;;;;39.95;27.70;;;25.00;60.50;;;;;;1926490;73;21078;-69
2023/01/26 04:29:41;;;;;;;;;;;;;;;;;;;;;
2023/01/26 04:32:08;;;;;;;36.83;25.65;;;25.10;60.50;;;;;;1920615;73;21482;-68
2023/01/26 04:34:40;;;;;;;39.85;25.92;;;25.20;60.40;;;;;;1922985;74;21613;-68
2023/01/26 04:37:11;;;;;;;41.15;26.30;;;25.30;60.20;;;;;;1920538;73;21103;-67
2023/01/26 04:39:43;;;;;;;34.53;24.40;;;25.30;60.80;;;;;;1914729;74;21058;-69
2023/01/26 04:42:13;;;;;;;35.13;24.32;;;25.40;59.30;;;;;;1921857;73;21247;-70
2023/01/26 04:44:45;;;;;;;37.20;24.05;;;25.50;58.30;;;;;;1918718;74;21070;-68
2023/01/26 04:47:16;;;;;;;37.40;23.02;;;25.60;58.50;;;;;;1914512;74;21175;-69
2023/01/26 04:49:47;;;;;;;35.13;23.07;;;25.70;58.00;;;;;;1922425;73;21069;-69
2023/01/26 04:52:18;;;;;;;35.80;22.85;;;25.80;57.60;;;;;;1919912;73;21063;-69
2023/01/26 04:54:49;;;;;;;30.75;22.05;;;25.90;57.50;;;;;;1909850;73;21459;-69
2023/01/26 04:57:22;;;;;;;32.00;22.05;;;25.90;56.70;;;;;;1912639;74;21118;-69
2023/01/26 04:59:53;;;;;;;33.40;23.00;;;26.00;57.10;;;;;;1914179;74;21074;-69
2023/01/26 05:02:24;;;;;;;33.33;22.65;;;26.10;55.50;;;;;;1920093;73;21579;-68
2023/01/26 05:04:55;;;;;;;32.53;23.10;;;26.10;55.40;;;;;;1922004;73;21133;-69
2023/01/26 05:07:26;;;;;;;29.30;22.10;;;26.20;55.70;;;;;;1935239;72;21052;-69
2023/01/26 05:09:58;;;;;;;30.25;20.75;;;26.30;55.90;;;;;;1925810;73;21304;-69
2023/01/26 05:12:35;;;;;;;28.85;21.55;;;26.30;55.60;;;;;;1937813;73;21195;-67
2023/01/26 05:15:06;;;;;;;29.10;20.25;;;26.30;55.60;;;;;;1934649;72;21206;-69
2023/01/26 05:17:37;;;;;;;28.67;21.68;;;26.30;55.40;;;;;;1928280;72;21167;-67
2023/01/26 05:20:09;;;;;;;29.35;21.52;;;26.40;55.90;;;;;;1924890;72;21082;-68
2023/01/26 05:22:44;;;;;;;32.05;23.02;;;26.50;54.90;;;;;;1943652;72;21227;-69
2023/01/26 05:25:15;;;;;;;27.42;21.93;;;26.60;55.40;;;;;;1912246;72;21180;-69
2023/01/26 05:27:46;;;;;;;28.62;20.65;;;;;;;;;;1932327;72;21196;-68
2023/01/26 05:30:17;;;;;;;30.08;23.05;;;26.70;53.40;;;;;;1926441;73;21145;-68
2023/01/26 05:32:49;;;;;;;36.70;23.85;;;26.80;53.80;;;;;;1926919;72;21157;-67
2023/01/26 05:35:20;;;;;;;36.08;24.70;;;26.70;55.10;;;;;;1928475;72;21172;-68
2023/01/26 05:37:51;;;;;;;36.10;24.25;;;26.80;54.80;;;;;;1924682;72;21692;-69
2023/01/26 05:40:23;;;;;;;32.88;22.37;;;26.80;55.00;;;;;;1928335;73;21191;-68
2023/01/26 05:42:55;;;;;;;38.78;23.22;;;26.90;55.30;;;;;;1913657;73;21175;-68
2023/01/26 05:45:26;;;;;;;33.33;24.12;;;27.00;54.70;;;;;;1915556;72;21536;-68
2023/01/26 05:47:57;;;;;;;32.08;24.05;;;27.00;55.30;;;;;;1956036;72;21150;-69
2023/01/26 05:50:28;;;;;;;32.70;23.57;;;27.00;54.60;;;;;;1924461;72;21082;-69
2023/01/26 05:53:01;;;;;;;35.90;23.25;;;27.10;54.30;;;;;;1910919;74;21073;-69
2023/01/26 05:55:32;;;;;;;33.75;22.35;;;27.20;54.20;;;;;;1922255;74;21129;-68
2023/01/26 05:58:03;;;;;;;30.75;22.73;;;27.20;54.30;;;;;;1924922;74;21557;-69
2023/01/26 06:00:34;;;;;;;36.03;23.62;;;27.30;54.40;;;;;;1936811;72;21215;-71
2023/01/26 06:03:05;;;;;;;33.18;22.75;;;27.30;53.90;;;;;;1917394;72;21133;-71
2023/01/26 06:05:37;;;;;;;42.70;25.30;;;27.30;54.10;;;;;;1922669;72;21059;-69
2023/01/26 06:08:08;;;;;;;30.65;24.30;;;27.40;55.10;;;;;;1931329;74;21054;-69
2023/01/26 06:10:40;;;;;;;37.55;25.00;;;27.40;55.10;;;;;;1917310;72;21068;-69
2023/01/26 06:13:11;;;;;;;34.85;24.70;;;27.40;55.00;;;;;;1935382;72;21169;-69
2023/01/26 06:15:43;;;;;;;27.30;23.38;;;27.50;54.60;;;;;;1932601;73;21049;-69
2023/01/26 06:18:17;;;;;;;33.83;24.23;;;27.50;54.40;;;;;;1922980;72;21222;-68
2023/01/26 06:23:39;;;;;;;31.30;24.55;;;27.50;53.50;;;;;;1870879;74;21152;-69
2023/01/26 06:26:10;;;;;;;36.03;24.60;;;27.60;54.10;;;;;;1905055;74;21062;-73
2023/01/26 06:28:41;;;;;;;35.50;24.52;;;27.60;54.40;;;;;;1899639;74;21173;-69
2023/01/26 06:31:13;;;;;;;33.78;25.08;;;27.60;54.80;;;;;;1900952;73;21129;-69
2023/01/26 06:33:44;;;;;;;36.03;24.82;;;27.60;54.60;;;;;;1908984;73;21072;-68
2023/01/26 06:36:16;;;;;;;28.83;23.42;;;27.60;54.40;;;;;;1929286;72;21094;-69
2023/01/26 06:38:55;;;;;;;33.33;24.47;;;27.70;53.70;;;;;;1953747;72;21539;-69
2023/01/26 06:41:24;;;;;;;43.40;24.63;;;27.70;54.10;;;;;;1932066;72;21198;-68
2023/01/26 06:43:55;;;;;;;36.80;25.45;;;27.70;53.90;;;;;;1946972;72;21110;-70
2023/01/26 06:46:27;;;;;;;33.13;24.12;;;27.70;53.90;;;;;;1902806;73;21810;-70
2023/01/26 06:48:58;;;;;;;29.35;22.55;;;27.70;54.20;;;;;;1943695;72;21798;-68
2023/01/26 06:51:47;;;;;;;31.40;23.38;;;27.80;54.20;;;;;;1936878;72;21131;-69
2023/01/26 06:54:17;;;;;;;30.50;22.45;;;27.80;53.60;;;;;;1929595;72;21072;-68
2023/01/26 06:56:48;;;;;;;34.45;22.98;;;27.90;53.20;;;;;;1954554;72;21106;-69
2023/01/26 06:59:20;;;;;;;30.20;21.30;;;28.00;53.40;;;;;;1905834;74;21552;-70
2023/01/26 07:01:51;;;;;;;33.25;22.62;;;28.00;52.60;;;;;;1852864;76;21265;-69
2023/01/26 07:04:25;;;;;;;31.48;23.12;;;28.10;53.40;;;;;;1894251;75;21173;-70
2023/01/26 07:06:55;;;;;;;33.98;21.60;;;28.10;52.40;;;;;;1862716;76;21170;-70
2023/01/26 07:09:26;;;;;;;29.67;22.58;;;28.10;52.00;;;;;;1863821;75;21190;-70
2023/01/26 07:11:57;;;;;;;30.70;21.97;;;28.10;52.60;;;;;;1897374;74;21130;-71
2023/01/26 07:14:28;;;;;;;36.48;21.68;;;28.00;52.70;;;;;;1904298;74;21100;-70
2023/01/26 07:16:59;;;;;;;32.88;22.85;;;28.10;53.40;;;;;;1862044;74;21209;-71
2023/01/26 07:19:32;;;;;;;30.12;22.70;;;28.00;53.10;;;;;;1867922;75;21645;-71
2023/01/26 07:22:04;;;;;;;32.28;22.48;;;28.00;53.10;;;;;;1887636;74;21220;-69
2023/01/26 07:24:35;;;;;;;31.05;21.68;;;28.10;52.80;;;;;;1884969;74;21148;-70
2023/01/26 07:27:06;;;;;;;30.68;21.42;;;28.10;52.60;;;;;;1937769;73;21154;-72
2023/01/26 07:29:37;;;;;;;29.02;21.45;;;28.10;52.40;;;;;;1889897;74;21095;-69
2023/01/26 07:32:08;;;;;;;29.70;21.27;;;28.10;52.50;;;;;;1915790;73;21602;-71
2023/01/26 07:34:39;;;;;;;30.02;21.15;;;28.00;52.00;;;;;;1918670;73;21794;-70
2023/01/26 07:37:10;;;;;;;28.40;22.22;;;28.00;52.40;;;;;;1931612;73;21228;-69
2023/01/26 07:39:41;;;;;;;27.15;21.85;;;28.00;52.60;;;;;;1886186;74;21119;-70
2023/01/26 07:42:12;;;;;;;33.88;21.85;;;28.00;52.90;;;;;;1916222;73;21138;-70
2023/01/26 07:44:43;;;;;;;29.55;20.85;;;28.10;52.70;;;;;;1919007;73;21349;-71
2023/01/26 07:47:15;;;;;;;26.15;20.65;;;28.10;52.10;;;;;;1916683;74;21697;-70
2023/01/26 07:49:49;;;;;;;28.45;21.45;;;28.00;52.00;;;;;;1940755;73;22348;-70
2023/01/26 07:52:20;;;;;;;33.02;22.25;;;27.90;52.50;;;;;;1930491;73;21539;-72
2023/01/26 07:54:50;;;;;;;30.80;20.72;;;27.90;52.70;;;;;;1926084;73;21224;-70
2023/01/26 07:57:21;;;;;;;32.15;21.77;;;27.90;52.50;;;;;;1920568;73;21095;-72
2023/01/26 07:59:52;;;;;;;28.98;20.30;;;27.90;52.70;;;;;;1926918;73;21224;-70
2023/01/26 08:02:23;;;;;;;23.40;19.70;;;27.90;52.30;;;;;;1934853;73;21556;-70
2023/01/26 08:04:59;;;;;;;29.42;20.48;;;27.90;52.00;;;;;;1929795;73;21614;-69
2023/01/26 08:07:30;;;;;;;26.00;19.57;;;27.80;52.10;;;;;;1934990;73;21146;-70
2023/01/26 08:10:01;;;;;;;29.35;22.37;;;27.80;52.00;;;;;;1944713;73;21523;-71
2023/01/26 08:12:33;;;;;;;26.80;20.15;;;27.80;53.00;;;;;;1939311;73;21582;-68
2023/01/26 08:15:06;;;;;;;25.10;19.77;;;27.80;52.50;;;;;;1938923;73;21095;-69
2023/01/26 08:17:37;;;;;;;28.30;20.60;;;27.80;52.30;;;;;;1922856;73;21607;-70
2023/01/26 08:20:12;;;;;;;28.32;20.40;;;27.70;52.50;;;;;;1935432;73;21237;-71
2023/01/26 08:22:43;;;;;;;30.80;21.45;;;27.70;52.40;;;;;;1937711;73;21279;-70
2023/01/26 08:25:15;;;;;;;30.97;21.55;;;27.70;52.40;;;;;;1928797;73;21664;-71
2023/01/26 08:27:46;;;;;;;27.35;18.40;;;27.80;52.50;;;;;;1909921;73;21197;-72
2023/01/26 08:30:18;;;;;;;27.48;19.48;;;27.80;52.20;;;;;;1946048;72;21638;-71
2023/01/26 08:32:48;;;;;;;24.65;19.27;;;27.80;52.00;;;;;;1941455;72;22172;-72
2023/01/26 08:35:19;;;;;;;28.75;20.12;;;27.80;52.00;;;;;;1951957;72;21186;-70
2023/01/26 08:37:50;;;;;;;27.87;20.30;;;27.80;52.40;;;;;;1869267;75;21236;-71
2023/01/26 08:40:21;;;;;;;29.10;19.95;;;27.70;52.10;;;;;;1887135;74;21114;-71
2023/01/26 08:42:53;;;;;;;28.77;19.87;;;27.70;52.50;;;;;;1898634;73;21162;-69
2023/01/26 08:45:24;;;;;;;24.27;19.32;;;27.70;52.50;;;;;;1894647;74;21552;-70
2023/01/26 08:47:56;;;;;;;26.52;19.12;;;27.70;52.50;;;;;;1912252;73;21374;-71
2023/01/26 08:50:28;;;;;;;28.30;18.10;;;27.70;52.50;;;;;;1917799;73;21116;-71
2023/01/26 08:52:59;;;;;;;25.95;19.02;;;27.70;52.20;;;;;;1924971;73;21180;-70
2023/01/26 08:55:31;;;;;;;23.98;18.35;;;27.70;51.90;;;;;;1927411;72;21658;-70
2023/01/26 08:58:03;;;;;;;29.32;19.10;;;27.70;51.80;;;;;;1930851;73;21067;-70
2023/01/26 09:00:34;;;;;;;23.05;18.32;;;27.70;51.90;;;;;;1886267;74;21042;-71
2023/01/26 09:03:06;;;;;;;25.85;19.02;;;27.70;52.00;;;;;;1906959;73;21217;-69
2023/01/26 09:05:39;;;;;;;30.55;18.35;;;27.70;52.70;;;;;;1917726;73;21536;-69
2023/01/26 09:08:10;;;;;;;24.67;18.32;;;27.70;52.10;;;;;;1907747;73;21849;-70
2023/01/26 09:10:45;;;;;;;25.90;18.12;;;27.70;51.60;;;;;;1898211;73;21183;-71
2023/01/26 09:13:17;;;;;;;24.70;17.17;;;27.60;50.90;;;;;;1907875;73;21055;-69
2023/01/26 09:15:48;;;;;;;22.75;16.65;;;27.60;51.20;;;;;;1908943;73;21977;-70
2023/01/26 09:18:19;;;;;;;23.90;17.95;;;27.60;50.80;;;;;;1915978;73;21127;-70
2023/01/26 09:20:50;;;;;;;24.52;18.25;;;27.60;50.70;;;;;;1913192;73;21194;-69
2023/01/26 09:23:22;;;;;;;25.77;18.70;;;27.60;51.10;;;;;;1908448;73;21544;-70
2023/01/26 09:25:56;;;;;;;26.33;18.10;;;27.60;51.40;;;;;;1916887;74;21692;-69
2023/01/26 09:28:27;;;;;;;21.48;18.07;;;27.60;51.60;;;;;;1836618;76;21167;-67
2023/01/26 09:31:13;;;;;;;22.65;17.50;;;27.60;51.40;;;;;;1862685;75;21160;-70
2023/01/26 09:33:40;;;;;;;21.57;17.35;;;27.60;52.10;;;;;;1861860;75;21187;-70
2023/01/26 09:36:12;;;;;;;21.55;17.35;;;27.50;51.40;;;;;;1867764;75;21154;-73
2023/01/26 09:38:43;;;;;;;26.17;17.20;;;27.50;51.20;;;;;;1872809;75;21605;-69
2023/01/26 09:41:20;;;;;;;24.12;17.98;;;27.50;51.70;;;;;;1865652;77;21577;-68
2023/01/26 09:44:06;;;;;;;28.23;19.87;;;27.50;51.50;;;;;;1864480;75;21148;-70
2023/01/26 09:46:51;;;;;;;30.12;18.95;;;27.50;51.80;;;;;;1863243;77;21086;-70
2023/01/26 09:49:33;;;;;;;22.93;19.27;;;27.40;51.80;;;;;;1863806;75;21156;-70
2023/01/26 09:52:06;;;;;;;24.80;18.90;;;27.40;52.20;;;;;;1863309;75;21506;-69
2023/01/26 09:54:40;;;;;;;27.55;18.75;;;27.40;52.10;;;;;;1864843;75;21613;-70
2023/01/26 09:57:13;;;;;;;26.25;18.87;;;27.40;51.90;;;;;;1870465;75;21198;-68
2023/01/26 09:59:52;;;;;;;25.97;20.05;;;27.40;52.30;;;;;;1833774;76;21165;-70
2023/01/26 10:02:50;;;;;;;26.87;18.92;;;27.30;52.00;;;;;;1835748;76;21206;-69
2023/01/26 10:08:19;;;;;;;28.20;19.40;;;27.20;52.80;;;;;;1815655;77;21228;-70
2023/01/26 10:11:01;;;;;;;25.08;18.87;;;27.20;52.50;;;;;;1823640;77;21150;-70
2023/01/26 10:13:33;;;;;;;28.70;18.32;;;27.10;52.50;;;;;;1804641;77;21206;-70
2023/01/26 10:16:12;;;;;;;27.30;18.45;;;27.10;52.40;;;;;;1827799;77;21158;-70
2023/01/26 10:18:45;;;;;;;25.10;17.65;;;27.10;52.70;;;;;;1840030;76;21229;-70
2023/01/26 10:21:18;;;;;;;26.65;18.48;;;27.00;53.10;;;;;;1890299;75;21061;-69
2023/01/26 10:23:50;;;;;;;23.90;18.62;;;27.00;53.00;;;;;;1835613;76;21179;-69
2023/01/26 10:26:24;;;;;;;36.65;19.70;;;27.00;52.80;;;;;;1835398;76;21162;-69
2023/01/26 10:28:55;;;;;;;27.15;19.65;;;26.90;52.50;;;;;;1844620;76;21171;-69
2023/01/26 10:31:29;;;;;;;25.15;19.00;;;26.90;53.20;;;;;;1809981;76;21197;-70
2023/01/26 10:34:11;;;;;;;25.50;17.95;;;26.80;53.20;;;;;;1811333;78;21073;-69
2023/01/26 10:36:46;;;;;;;26.10;17.45;;;26.80;53.30;;;;;;1832952;76;21179;-69
2023/01/26 10:39:20;;;;;;;26.40;21.00;;;26.80;53.50;;;;;;1835393;77;21118;-67
2023/01/26 10:42:04;;;;;;;28.02;20.75;;;26.70;53.40;;;;;;1854560;76;21253;-68
2023/01/26 10:44:37;;;;;;;25.12;20.08;;;26.70;53.60;;;;;;1844819;76;21135;-69
2023/01/26 10:47:17;;;;;;;29.95;21.95;;;26.60;53.70;;;;;;1792837;78;21280;-68
2023/01/26 10:49:48;;;;;;;25.75;19.30;;;26.60;54.00;;;;;;1805504;77;21245;-68
2023/01/26 10:52:28;;;;;;;29.77;21.80;;;26.50;54.20;;;;;;1845022;76;21126;-69
2023/01/26 10:55:14;;;;;;;27.13;22.62;;;26.50;54.40;;;;;;1820318;76;21145;-69
2023/01/26 10:57:45;;;;;;;28.75;19.77;;;26.40;54.30;;;;;;1851091;75;21106;-69
2023/01/26 11:00:31;;;;;;;29.77;20.35;;;26.40;54.40;;;;;;1857935;75;21139;-67
2023/01/26 11:03:07;;;;;;;31.85;19.02;;;26.30;54.60;;;;;;1843748;76;21129;-69
2023/01/26 11:05:39;;;;;;;25.50;19.25;;;26.30;54.80;;;;;;1816816;75;21577;-70
2023/01/26 11:08:28;;;;;;;25.70;19.52;;;26.30;55.00;;;;;;1872703;75;21135;-70
2023/01/26 11:11:00;;;;;;;35.83;23.75;;;26.20;54.90;;;;;;1807721;77;21170;-69
2023/01/26 11:13:31;;;;;;;33.45;24.67;;;26.10;55.30;;;;;;1871836;75;21200;-69
2023/01/26 11:16:17;;;;;;;33.33;25.20;;;26.10;55.70;;;;;;1833130;77;21148;-69
2023/01/26 11:18:59;;;;;;;30.95;24.07;;;26.10;55.90;;;;;;1846219;77;21596;-69
2023/01/26 11:21:38;;;;;;;37.20;25.68;;;26.00;56.00;;;;;;1865842;75;21156;-69
2023/01/26 11:24:31;;;;;;;36.55;23.70;;;26.00;56.10;;;;;;1890764;74;21658;-70
2023/01/26 11:27:24;;;;;;;34.33;22.90;;;26.00;56.30;;;;;;1882464;74;21131;-69
2023/01/26 11:30:03;;;;;;;33.78;23.47;;;25.90;56.40;;;;;;1882067;75;21252;-68
2023/01/26 11:33:11;;;;;;;34.45;23.18;;;25.90;57.00;;;;;;1853523;76;21183;-69
2023/01/26 11:35:59;;;;;;;39.78;23.10;;;25.80;56.70;;;;;;1797065;78;21244;-68
2023/01/26 11:38:45;;;;;;;36.03;24.27;;;25.80;56.90;;;;;;1772317;77;21640;-69
2023/01/26 11:41:18;;;;;;;36.17;23.15;;;25.80;57.20;;;;;;1809391;77;21625;-70
2023/01/26 11:43:58;;;;;;;29.82;21.50;;;25.70;57.20;;;;;;1851528;76;21151;-68
2023/01/26 11:46:43;;;;;;;34.03;21.73;;;25.80;57.50;;;;;;1885936;75;21559;-85
2023/01/26 11:49:35;;;;;;;35.75;23.50;;;25.70;57.40;;;;;;1887365;74;21105;-85
2023/01/26 11:52:36;;;;;;;35.40;23.67;;;25.70;57.60;;;;;;1863329;74;21161;-83
2023/01/26 11:55:18;;;;;;;39.08;23.00;;;25.70;57.60;;;;;;1876730;75;21076;-83
2023/01/26 11:57:55;;;;;;;40.03;22.82;;;25.60;57.70;;;;;;1890208;75;21103;-84
2023/01/26 12:00:50;;;;;;;41.85;25.52;;;25.60;58.60;;;;;;1881696;75;21174;-85
2023/01/26 12:03:26;;;;;;;44.95;30.27;;;25.60;58.10;;;;;;1809537;78;21185;-84
2023/01/26 12:06:00;;;;;;;54.15;34.85;;;25.60;58.30;;;;;;1778713;79;21374;-83
2023/01/26 12:08:45;;;;;;;43.68;30.05;;;25.60;58.60;;;;;;1790186;78;21667;-84
2023/01/26 12:11:25;;;;;;;48.83;29.00;;;25.60;58.80;;;;;;1815134;78;21166;-84
2023/01/26 12:14:25;;;;;;;42.30;28.83;;;25.50;58.80;;;;;;1885186;75;21569;-86
2023/01/26 12:17:13;;;;;;;47.98;29.77;;;25.50;58.80;;;;;;1848793;76;21145;-84
2023/01/26 12:20:04;;;;;;;45.28;29.65;;;25.50;58.90;;;;;;1861446;75;21253;-84
2023/01/26 12:22:41;;;;;;;51.40;31.57;;;25.50;59.10;;;;;;1836376;76;21166;-84
2023/01/26 12:25:35;;;;;;;42.70;29.63;;;25.50;59.90;;;;;;1882320;74;21091;-83
2023/01/26 12:28:18;;;;;;;40.60;29.02;;;25.40;59.10;;;;;;1864659;75;21086;-85
2023/01/26 12:30:51;;;;;;;38.92;28.65;;;25.50;59.20;;;;;;1838730;77;21694;-83
2023/01/26 12:33:26;;;;;;;42.70;29.02;;;25.40;59.30;;;;;;1831028;77;21113;-83
2023/01/26 12:36:24;;;;;;;42.75;28.55;;;25.40;59.50;;;;;;1815713;77;21196;-83
2023/01/26 12:39:20;;;;;;;44.95;28.45;;;25.40;59.60;;;;;;1796453;77;21161;-83
2023/01/26 12:42:28;;;;;;;39.88;27.40;;;25.40;59.70;;;;;;1836272;77;21078;-85
2023/01/26 12:45:07;;;;;;;37.03;28.32;;;25.40;59.60;;;;;;1834914;77;21091;-85
2023/01/26 12:51:17;;;;;;;39.60;29.07;;;25.30;60.20;;;;;;1792502;78;21160;-85
2023/01/26 12:53:58;;;;;;;48.28;30.70;;;25.30;60.60;;;;;;1866011;75;21668;-85
2023/01/26 12:56:46;;;;;;;45.92;30.10;;;25.30;61.30;;;;;;1858655;75;21156;-84
2023/01/26 12:59:22;;;;;;;49.40;32.25;;;25.20;62.20;;;;;;1861239;75;21161;-85
2023/01/26 13:01:55;;;;;;;44.38;30.75;;;25.20;62.90;;;;;;1869727;75;21144;-83
2023/01/26 13:04:26;;;;;;;48.52;29.27;;;25.10;63.40;;;;;;1861881;75;21166;-84
2023/01/26 13:07:06;;;;;;;50.63;31.52;;;25.00;63.70;;;;;;1860711;75;21078;-85
2023/01/26 13:09:41;;;;;;;45.58;29.07;;;25.00;63.70;;;;;;1867468;75;21151;-84
2023/01/26 13:12:14;;;;;;;41.05;29.18;;;24.90;63.90;;;;;;1844609;75;21709;-85
2023/01/26 13:14:51;;;;;;;49.38;30.68;;;24.90;63.60;;;;;;1887032;75;21092;-84
2023/01/26 13:17:27;;;;;;;43.83;29.63;;;24.90;63.90;;;;;;1841928;76;21256;-86
2023/01/26 13:19:59;;;;;;;43.98;29.05;;;24.90;63.60;;;;;;1842314;76;21059;-85
2023/01/26 13:22:40;;;;;;;44.85;29.42;;;24.90;63.60;;;;;;1795919;78;21176;-84
2023/01/26 13:25:20;;;;;;;50.40;30.02;;;24.90;64.20;;;;;;1814695;77;21073;-84
2023/01/26 13:28:08;;;;;;;50.80;30.62;;;24.90;64.40;;;;;;1850651;76;21622;-84
2023/01/26 13:30:48;;;;;;;53.83;30.67;;;24.80;64.70;;;;;;1856008;76;21244;-84
2023/01/26 13:33:27;;;;;;;44.80;29.87;;;24.80;64.50;;;;;;1828135;77;21069;-83
2023/01/26 13:36:01;;;;;;;47.80;29.20;;;24.70;64.80;;;;;;1858240;75;21188;-84
2023/01/26 13:38:41;;;;;;;49.05;29.85;;;24.70;65.00;;;;;;1850165;76;21540;-84
2023/01/26 13:41:20;;;;;;;45.40;29.60;;;24.70;65.20;;;;;;1815298;77;21220;-88
2023/01/26 13:43:53;;;;;;;50.90;31.12;;;24.70;65.20;;;;;;1866765;75;21109;-86
2023/01/26 13:46:38;;;;;;;41.15;28.65;;;24.60;65.20;;;;;;1855003;75;21369;-85
2023/01/26 13:49:41;;;;;;;43.45;29.52;;;24.60;65.30;;;;;;1880867;75;21151;-86
2023/01/26 13:52:24;;;;;;;48.58;31.20;;;24.60;65.30;;;;;;1878436;75;21209;-83
2023/01/26 13:54:57;;;;;;;45.67;30.40;;;24.60;66.30;;;;;;1823224;77;21103;-85
2023/01/26 13:57:36;;;;;;;42.30;30.25;;;24.60;66.40;;;;;;1836598;77;21083;-84
2023/01/26 14:00:05;;;;;;;;;;;24.60;66.30;;;;;;1893425;75;21073;-87
2023/01/26 14:02:37;;;;;;;55.75;31.57;;;24.50;65.80;;;;;;1866217;76;20176;-84